createdAt,value
2018-04-23T00:01:15.841Z,23.20
2018-04-23T00:03:43.305Z,23.20
2018-04-23T00:06:10.778Z,23.20
2018-04-23T00:08:38.214Z,23.10
2018-04-23T00:11:05.685Z,23.10
2018-04-23T00:13:33.131Z,23.10
2018-04-23T00:16:00.594Z,23.10
2018-04-23T00:18:28.033Z,23.00
2018-04-23T00:20:55.471Z,23.00
2018-04-23T00:23:22.937Z,23.00
2018-04-23T00:25:50.401Z,23.00
2018-04-23T00:28:17.882Z,22.90
2018-04-23T00:30:45.360Z,22.90
2018-04-23T00:33:13.586Z,22.90
2018-04-23T00:35:41.046Z,22.80
2018-04-23T00:38:08.517Z,22.80
2018-04-23T00:40:35.984Z,22.80
2018-04-23T00:43:03.453Z,22.80
2018-04-23T00:45:31.682Z,22.80
2018-04-23T00:47:59.150Z,22.80
2018-04-23T00:50:26.601Z,22.70
2018-04-23T00:53:06.067Z,22.70
2018-04-23T00:55:33.507Z,22.70
2018-04-23T00:58:00.970Z,22.70
2018-04-23T01:00:28.451Z,22.70
2018-04-23T01:02:56.666Z,22.60
2018-04-23T01:05:24.134Z,22.60
2018-04-23T01:07:51.592Z,22.60
2018-04-23T01:10:19.140Z,22.60
2018-04-23T01:12:46.606Z,22.60
2018-04-23T01:15:14.076Z,22.50
2018-04-23T01:17:41.523Z,22.50
2018-04-23T01:20:08.985Z,22.50
2018-04-23T01:22:36.432Z,22.50
2018-04-23T01:25:03.898Z,22.50
2018-04-23T01:27:31.372Z,22.50
2018-04-23T01:29:58.818Z,22.50
2018-04-23T01:32:26.271Z,22.40
2018-04-23T01:34:53.746Z,22.40
2018-04-23T01:37:21.981Z,22.40
2018-04-23T01:39:49.457Z,22.40
2018-04-23T01:42:16.898Z,22.40
2018-04-23T01:44:44.391Z,22.30
2018-04-23T01:47:11.837Z,22.40
2018-04-23T01:49:40.064Z,22.30
2018-04-23T01:52:07.551Z,22.30
2018-04-23T01:54:35.031Z,22.30
2018-04-23T01:57:03.262Z,22.30
2018-04-23T01:59:30.722Z,22.20
2018-04-23T02:01:58.186Z,22.20
2018-04-23T02:04:25.761Z,22.20
2018-04-23T02:06:53.242Z,22.20
2018-04-23T02:09:21.450Z,22.10
2018-04-23T02:11:48.931Z,22.10
2018-04-23T02:14:16.386Z,22.20
2018-04-23T02:16:43.861Z,22.10
2018-04-23T02:19:12.090Z,22.10
2018-04-23T02:21:39.578Z,22.00
2018-04-23T02:24:07.050Z,22.10
2018-04-23T02:26:34.518Z,22.00
2018-04-23T02:29:01.982Z,22.00
2018-04-23T02:31:29.466Z,21.90
2018-04-23T02:33:56.910Z,21.90
2018-04-23T02:36:24.362Z,21.90
2018-04-23T02:38:52.599Z,21.80
2018-04-23T02:41:20.049Z,21.80
2018-04-23T02:43:47.522Z,21.80
2018-04-23T02:46:14.980Z,21.80
2018-04-23T02:48:42.454Z,21.80
2018-04-23T02:51:10.669Z,21.80
2018-04-23T02:53:38.152Z,21.80
2018-04-23T02:56:05.615Z,21.80
2018-04-23T02:58:33.074Z,21.80
2018-04-23T03:01:00.524Z,21.80
2018-04-23T03:03:27.990Z,21.70
2018-04-23T03:05:55.456Z,21.70
2018-04-23T03:08:23.039Z,21.70
2018-04-23T03:10:50.630Z,21.70
2018-04-23T03:13:18.085Z,21.60
2018-04-23T03:15:45.545Z,21.70
2018-04-23T03:18:13.002Z,21.70
2018-04-23T03:20:40.473Z,21.70
2018-04-23T03:23:07.918Z,21.70
2018-04-23T03:25:35.362Z,21.70
2018-04-23T03:28:02.844Z,21.60
2018-04-23T03:30:30.347Z,21.60
2018-04-23T03:32:57.819Z,21.60
2018-04-23T03:35:25.279Z,21.60
2018-04-23T03:37:52.758Z,21.60
2018-04-23T03:40:20.237Z,21.60
2018-04-23T03:42:47.691Z,21.50
2018-04-23T03:45:15.174Z,21.50
2018-04-23T03:47:42.602Z,21.60
2018-04-23T03:50:10.100Z,21.50
2018-04-23T03:52:38.311Z,21.50
2018-04-23T03:55:05.774Z,21.50
2018-04-23T03:57:33.218Z,21.50
2018-04-23T04:00:00.726Z,21.50
2018-04-23T04:02:28.951Z,21.40
2018-04-23T04:04:56.405Z,21.40
2018-04-23T04:07:23.869Z,21.40
2018-04-23T04:09:51.323Z,21.40
2018-04-23T04:12:30.734Z,21.30
2018-04-23T04:15:10.181Z,21.20
2018-04-23T04:20:35.197Z,21.00
2018-04-23T04:23:02.637Z,20.80
2018-04-23T04:25:30.093Z,20.80
2018-04-23T04:27:58.309Z,20.60
2018-04-23T04:30:25.758Z,20.60
2018-04-23T04:32:53.246Z,20.60
2018-04-23T04:35:20.687Z,20.50
2018-04-23T04:37:48.159Z,20.50
2018-04-23T04:40:15.617Z,20.50
2018-04-23T04:42:43.225Z,20.40
2018-04-23T04:45:10.682Z,20.40
2018-04-23T04:47:38.172Z,20.30
2018-04-23T04:50:05.633Z,20.30
2018-04-23T04:52:33.118Z,20.30
2018-04-23T04:55:01.347Z,20.20
2018-04-23T04:57:28.801Z,20.20
2018-04-23T04:59:56.271Z,20.10
2018-04-23T05:02:23.747Z,20.10
2018-04-23T05:04:51.213Z,20.10
2018-04-23T05:07:19.434Z,20.10
2018-04-23T05:09:46.922Z,20.00
2018-04-23T05:12:15.209Z,20.00
2018-04-23T05:14:42.671Z,20.00
2018-04-23T05:17:10.127Z,20.00
2018-04-23T05:19:38.366Z,20.00
2018-04-23T05:22:05.816Z,19.90
2018-04-23T05:24:33.298Z,19.90
2018-04-23T05:27:00.746Z,20.00
2018-04-23T05:29:28.215Z,20.00
2018-04-23T05:31:55.691Z,20.00
2018-04-23T05:34:23.902Z,20.10
2018-04-23T05:36:51.362Z,20.00
2018-04-23T05:39:18.810Z,20.10
2018-04-23T05:41:46.281Z,20.10
2018-04-23T05:44:13.780Z,20.20
2018-04-23T05:46:41.206Z,20.20
2018-04-23T05:49:08.675Z,20.20
2018-04-23T05:51:36.154Z,20.30
2018-04-23T05:54:04.377Z,20.50
2018-04-23T05:56:31.869Z,20.40
2018-04-23T05:58:59.333Z,20.60
2018-04-23T06:01:26.819Z,20.60
2018-04-23T06:03:54.302Z,20.70
2018-04-23T06:06:21.789Z,20.70
2018-04-23T06:08:49.253Z,20.80
2018-04-23T06:11:18.231Z,20.90
2018-04-23T06:13:45.689Z,20.90
2018-04-23T06:16:13.156Z,20.90
2018-04-23T06:18:40.641Z,20.90
2018-04-23T06:21:08.878Z,21.00
2018-04-23T06:23:36.359Z,21.00
2018-04-23T06:26:04.597Z,21.00
2018-04-23T06:28:32.050Z,21.00
2018-04-23T06:30:59.505Z,21.00
2018-04-23T06:33:26.990Z,21.00
2018-04-23T06:35:54.467Z,21.00
2018-04-23T06:38:22.689Z,21.00
2018-04-23T06:40:50.155Z,21.00
2018-04-23T06:43:17.633Z,21.10
2018-04-23T06:45:45.090Z,21.10
2018-04-23T06:48:12.562Z,21.20
2018-04-23T06:50:39.996Z,21.20
2018-04-23T06:53:07.486Z,21.20
2018-04-23T06:55:35.695Z,21.30
2018-04-23T06:58:03.170Z,21.20
2018-04-23T07:00:30.644Z,21.30
2018-04-23T07:02:58.106Z,21.30
2018-04-23T07:05:25.571Z,21.30
2018-04-23T07:07:53.015Z,21.30
2018-04-23T07:10:20.555Z,21.40
2018-04-23T07:12:48.009Z,21.40
2018-04-23T07:15:15.482Z,21.50
2018-04-23T07:17:44.435Z,21.50
2018-04-23T07:20:11.908Z,21.50
2018-04-23T07:22:39.346Z,21.50
2018-04-23T07:25:06.942Z,21.60
2018-04-23T07:27:34.401Z,21.60
2018-04-23T07:30:01.868Z,21.60
2018-04-23T07:32:29.334Z,21.70
2018-04-23T07:34:57.583Z,21.80
2018-04-23T07:37:25.054Z,21.80
2018-04-23T07:39:52.667Z,21.90
2018-04-23T07:42:20.138Z,21.90
2018-04-23T07:44:47.599Z,22.00
2018-04-23T07:47:15.055Z,22.00
2018-04-23T07:49:42.538Z,22.00
2018-04-23T07:52:10.006Z,22.00
2018-04-23T07:54:38.226Z,22.00
2018-04-23T07:57:05.687Z,22.00
2018-04-23T07:59:33.162Z,22.00
2018-04-23T08:02:00.647Z,21.90
2018-04-23T08:04:28.102Z,22.00
2018-04-23T08:06:56.366Z,22.00
2018-04-23T08:09:23.835Z,22.00
2018-04-23T08:11:52.080Z,21.90
2018-04-23T08:14:19.535Z,21.90
2018-04-23T08:16:46.993Z,21.90
2018-04-23T08:19:14.488Z,21.90
2018-04-23T08:21:42.719Z,21.90
2018-04-23T08:24:10.210Z,21.80
2018-04-23T08:26:37.677Z,21.80
2018-04-23T08:29:05.934Z,21.60
2018-04-23T08:31:33.396Z,21.60
2018-04-23T08:34:02.086Z,21.50
2018-04-23T08:36:30.313Z,21.40
2018-04-23T08:38:57.773Z,21.30
2018-04-23T08:41:25.232Z,21.30
2018-04-23T08:43:52.764Z,21.20
2018-04-23T08:46:20.185Z,21.10
2018-04-23T08:48:48.395Z,21.10
2018-04-23T08:51:15.878Z,21.00
2018-04-23T08:53:43.328Z,21.00
2018-04-23T08:56:10.813Z,20.90
2018-04-23T08:58:38.258Z,20.80
2018-04-23T09:01:05.749Z,20.70
2018-04-23T09:03:33.980Z,20.60
2018-04-23T09:06:01.456Z,20.60
2018-04-23T09:08:28.925Z,20.70
2018-04-23T09:10:56.375Z,20.70
2018-04-23T09:13:23.853Z,20.80
2018-04-23T09:15:51.314Z,20.80
2018-04-23T09:18:19.549Z,20.90
2018-04-23T09:20:47.034Z,20.90
2018-04-23T09:23:15.273Z,21.00
2018-04-23T09:25:42.726Z,20.90
2018-04-23T09:28:10.202Z,21.00
2018-04-23T09:30:37.650Z,21.10
2018-04-23T09:33:05.129Z,21.10
2018-04-23T09:35:33.343Z,21.20
2018-04-23T09:38:00.824Z,21.10
2018-04-23T09:40:28.296Z,21.20
2018-04-23T09:42:57.270Z,21.30
2018-04-23T09:45:24.756Z,21.30
2018-04-23T09:47:52.198Z,21.40
2018-04-23T09:50:19.683Z,21.40
2018-04-23T09:52:47.919Z,21.60
2018-04-23T09:55:15.382Z,21.60
2018-04-23T09:57:42.846Z,21.70
2018-04-23T10:00:10.302Z,21.80
2018-04-23T10:02:47.678Z,21.90
2018-04-23T10:05:15.154Z,22.00
2018-04-23T10:07:42.602Z,22.10
2018-04-23T10:10:10.070Z,22.20
2018-04-23T10:12:38.314Z,22.30
2018-04-23T10:15:05.790Z,22.30
2018-04-23T10:17:33.254Z,22.40
2018-04-23T10:20:01.475Z,22.40
2018-04-23T10:22:28.950Z,22.40
2018-04-23T10:24:56.413Z,22.40
2018-04-23T10:27:23.878Z,22.30
2018-04-23T10:29:51.334Z,22.30
2018-04-23T10:32:18.808Z,22.20
2018-04-23T10:34:46.266Z,22.20
2018-04-23T10:37:14.506Z,22.00
2018-04-23T10:39:41.950Z,22.00
2018-04-23T10:42:09.439Z,21.90
2018-04-23T10:44:36.901Z,21.80
2018-04-23T10:47:04.386Z,21.70
2018-04-23T10:49:32.624Z,21.50
2018-04-23T10:52:00.080Z,21.50
2018-04-23T10:54:27.541Z,21.50
2018-04-23T10:56:55.122Z,21.50
2018-04-23T10:59:22.579Z,21.50
2018-04-23T11:01:50.823Z,21.40
2018-04-23T11:04:18.295Z,21.40
2018-04-23T11:06:45.735Z,21.40
2018-04-23T11:09:13.206Z,21.30
2018-04-23T11:11:40.651Z,21.30
2018-04-23T11:14:08.133Z,21.30
2018-04-23T11:16:35.591Z,21.30
2018-04-23T11:19:03.828Z,21.40
2018-04-23T11:21:31.286Z,21.40
2018-04-23T11:23:58.758Z,21.50
2018-04-23T11:26:27.042Z,21.60
2018-04-23T11:28:54.510Z,21.60
2018-04-23T11:31:22.721Z,21.70
2018-04-23T11:33:50.192Z,21.70
2018-04-23T11:36:17.674Z,21.70
2018-04-23T11:38:45.171Z,21.70
2018-04-23T11:41:13.407Z,21.60
2018-04-23T11:43:40.894Z,21.60
2018-04-23T11:46:09.138Z,21.70
2018-04-23T11:48:36.594Z,21.60
2018-04-23T11:51:04.059Z,21.60
2018-04-23T11:53:31.533Z,21.70
2018-04-23T11:55:59.773Z,21.60
2018-04-23T11:58:27.221Z,21.70
2018-04-23T12:00:54.711Z,21.60
2018-04-23T12:03:22.150Z,21.60
2018-04-23T12:05:49.609Z,21.60
2018-04-23T12:08:17.078Z,21.50
2018-04-23T12:10:45.296Z,21.50
2018-04-23T12:13:12.768Z,21.40
2018-04-23T12:15:40.229Z,21.40
2018-04-23T12:18:07.727Z,21.40
2018-04-23T12:20:35.963Z,21.30
2018-04-23T12:23:03.439Z,21.30
2018-04-23T12:25:30.910Z,21.20
2018-04-23T12:27:58.370Z,21.20
2018-04-23T12:30:26.601Z,21.10
2018-04-23T12:32:54.081Z,21.10
2018-04-23T12:35:21.542Z,21.00
2018-04-23T12:37:48.986Z,20.90
2018-04-23T12:40:16.461Z,20.80
2018-04-23T12:42:43.935Z,20.80
2018-04-23T12:45:12.188Z,20.70
2018-04-23T12:47:39.657Z,20.70
2018-04-23T12:50:07.910Z,20.70
2018-04-23T12:52:35.349Z,20.60
2018-04-23T12:55:02.818Z,20.60
2018-04-23T12:57:30.270Z,20.50
2018-04-23T12:59:57.765Z,20.50
2018-04-23T13:02:26.044Z,20.40
2018-04-23T13:04:54.312Z,20.40
2018-04-23T13:07:22.518Z,20.40
2018-04-23T13:09:49.995Z,20.40
2018-04-23T13:12:17.481Z,20.50
2018-04-23T13:14:44.912Z,20.50
2018-04-23T13:17:12.424Z,20.50
2018-04-23T13:19:40.641Z,20.50
2018-04-23T13:22:08.128Z,20.50
2018-04-23T13:24:35.597Z,20.60
2018-04-23T13:27:03.059Z,20.60
2018-04-23T13:29:31.265Z,20.70
2018-04-23T13:31:58.728Z,20.70
2018-04-23T13:34:26.212Z,20.80
2018-04-23T13:36:53.674Z,20.80
2018-04-23T13:39:21.138Z,20.90
2018-04-23T13:41:48.617Z,21.00
2018-04-23T13:44:16.852Z,21.30
2018-04-23T13:46:44.329Z,21.30
2018-04-23T13:49:11.801Z,21.30
2018-04-23T13:51:40.026Z,21.80
2018-04-23T13:54:07.497Z,21.80
2018-04-23T13:56:34.947Z,21.90
2018-04-23T13:59:02.459Z,22.20
2018-04-23T14:01:29.957Z,22.60
2018-04-23T14:03:57.403Z,22.90
2018-04-23T14:06:24.857Z,23.10
2018-04-23T14:08:52.322Z,23.40
2018-04-23T14:11:19.797Z,23.60
2018-04-23T14:13:47.256Z,23.80
2018-04-23T14:16:14.721Z,23.90
2018-04-23T14:18:42.210Z,24.00
2018-04-23T14:21:09.673Z,24.10
2018-04-23T14:23:37.113Z,24.30
2018-04-23T14:26:05.352Z,24.40
2018-04-23T14:28:32.860Z,24.40
2018-04-23T14:31:00.342Z,24.50
2018-04-23T14:33:27.801Z,24.60
2018-04-23T14:35:55.282Z,24.70
2018-04-23T14:38:22.760Z,24.80
2018-04-23T14:40:51.014Z,24.90
2018-04-23T14:43:18.489Z,24.90
2018-04-23T14:45:45.969Z,24.90
2018-04-23T14:48:13.418Z,24.90
2018-04-23T14:50:40.918Z,24.80
2018-04-23T14:53:08.425Z,24.60
2018-04-23T14:55:35.882Z,24.30
2018-04-23T14:58:04.110Z,24.30
2018-04-23T15:00:31.582Z,24.20
2018-04-23T15:02:59.135Z,24.10
2018-04-23T15:05:26.603Z,24.00
2018-04-23T15:07:54.838Z,23.90
2018-04-23T15:10:22.282Z,23.90
2018-04-23T15:12:49.767Z,23.60
2018-04-23T15:15:17.209Z,23.30
2018-04-23T15:17:44.687Z,23.10
2018-04-23T15:20:12.138Z,22.80
2018-04-23T15:22:39.613Z,22.60
2018-04-23T15:25:07.090Z,22.50
2018-04-23T15:27:34.573Z,22.40
2018-04-23T15:30:02.085Z,22.20
2018-04-23T15:32:29.559Z,22.00
2018-04-23T15:34:57.794Z,21.80
2018-04-23T15:37:25.300Z,21.70
2018-04-23T15:39:53.515Z,21.50
2018-04-23T15:42:20.954Z,21.40
2018-04-23T15:44:48.431Z,21.40
2018-04-23T15:47:15.947Z,21.30
2018-04-23T15:49:43.394Z,21.30
2018-04-23T15:52:11.610Z,21.30
2018-04-23T15:54:39.084Z,21.30
2018-04-23T15:57:06.538Z,21.30
2018-04-23T15:59:34.027Z,21.20
2018-04-23T16:02:01.487Z,21.20
2018-04-23T16:04:29.727Z,21.10
2018-04-23T16:06:57.182Z,21.10
2018-04-23T16:09:24.672Z,21.10
2018-04-23T16:11:52.113Z,21.10
2018-04-23T16:14:19.604Z,21.00
2018-04-23T16:16:47.815Z,21.00
2018-04-23T16:19:15.276Z,20.90
2018-04-23T16:21:42.750Z,21.00
2018-04-23T16:24:10.216Z,21.00
2018-04-23T16:26:37.698Z,21.00
2018-04-23T16:29:05.919Z,21.00
2018-04-23T16:31:33.435Z,21.00
2018-04-23T16:34:00.924Z,21.00
2018-04-23T16:36:28.435Z,21.00
2018-04-23T16:38:56.646Z,20.90
2018-04-23T16:41:24.101Z,20.80
2018-04-23T16:43:51.659Z,20.80
2018-04-23T16:46:19.147Z,20.80
2018-04-23T16:48:46.668Z,20.80
2018-04-23T16:51:14.135Z,20.80
2018-04-23T16:53:41.599Z,20.90
2018-04-23T16:56:09.080Z,20.90
2018-04-23T16:58:36.547Z,20.90
2018-04-23T17:01:03.999Z,20.90
2018-04-23T17:03:31.499Z,20.90
2018-04-23T17:05:59.753Z,20.90
2018-04-23T17:08:27.986Z,20.90
2018-04-23T17:10:56.255Z,20.90
2018-04-23T17:13:23.761Z,20.90
2018-04-23T17:15:51.202Z,20.90
2018-04-23T17:18:18.694Z,20.90
2018-04-23T17:20:46.199Z,20.90
2018-04-23T17:23:13.661Z,20.80
2018-04-23T17:25:41.166Z,20.90
2018-04-23T17:28:08.623Z,20.80
2018-04-23T17:30:36.123Z,20.80
2018-04-23T17:33:03.653Z,20.70
2018-04-23T17:35:31.159Z,20.70
2018-04-23T17:37:58.603Z,20.70
2018-04-23T17:40:26.099Z,20.70
2018-04-23T17:42:53.572Z,20.60
2018-04-23T17:45:21.107Z,20.60
2018-04-23T17:47:49.383Z,20.60
2018-04-23T17:50:17.656Z,20.60
2018-04-23T17:52:45.953Z,20.60
2018-04-23T17:55:13.372Z,20.60
2018-04-23T17:57:41.645Z,20.60
2018-04-23T18:00:09.102Z,20.50
2018-04-23T18:02:36.571Z,20.50
2018-04-23T18:05:04.836Z,20.50
2018-04-23T18:07:32.306Z,20.50
2018-04-23T18:09:59.795Z,20.40
2018-04-23T18:12:27.277Z,20.40
2018-04-23T18:14:54.752Z,20.40
2018-04-23T18:17:22.245Z,20.30
2018-04-23T18:19:50.476Z,20.20
2018-04-23T18:22:17.981Z,20.20
2018-04-23T18:24:46.236Z,20.10
2018-04-23T18:27:14.518Z,20.10
2018-04-23T18:29:42.762Z,20.10
2018-04-23T18:32:11.021Z,20.10
2018-04-23T18:34:38.463Z,20.10
2018-04-23T18:37:05.965Z,20.00
2018-04-23T18:39:35.173Z,20.10
2018-04-23T18:42:04.038Z,20.10
2018-04-23T18:44:31.574Z,20.10
2018-04-23T18:46:59.037Z,20.10
2018-04-23T18:49:26.540Z,20.10
2018-04-23T18:51:54.791Z,20.10
2018-04-23T18:54:23.087Z,20.10
2018-04-23T18:56:50.538Z,20.10
2018-04-23T18:59:18.781Z,20.10
2018-04-23T19:01:46.299Z,20.10
2018-04-23T19:04:13.785Z,20.00
2018-04-23T19:06:41.285Z,20.00
2018-04-23T19:09:09.526Z,20.00
2018-04-23T19:11:37.024Z,19.90
2018-04-23T19:14:05.276Z,20.00
2018-04-23T19:16:32.804Z,19.90
2018-04-23T19:19:00.259Z,20.00
2018-04-23T19:21:27.783Z,19.90
2018-04-23T19:23:55.259Z,19.90
2018-04-23T19:26:22.844Z,19.90
2018-04-23T19:28:50.750Z,19.90
2018-04-23T19:31:19.020Z,19.90
2018-04-23T19:33:47.265Z,19.90
2018-04-23T19:36:14.737Z,19.90
2018-04-23T19:38:42.281Z,19.90
2018-04-23T19:41:09.714Z,20.00
2018-04-23T19:43:37.225Z,20.10
2018-04-23T19:46:05.571Z,20.20
2018-04-23T19:48:32.970Z,20.20
2018-04-23T19:51:01.216Z,20.20
2018-04-23T19:53:28.702Z,20.10
2018-04-23T19:55:56.970Z,20.10
2018-04-23T19:58:25.240Z,20.10
2018-04-23T20:00:53.496Z,20.00
2018-04-23T20:03:20.982Z,20.00
2018-04-23T20:05:49.218Z,19.90
2018-04-23T20:08:16.714Z,19.90
2018-04-23T20:10:44.209Z,19.90
2018-04-23T20:13:11.720Z,19.90
2018-04-23T20:15:39.975Z,19.90
2018-04-23T20:18:07.466Z,19.90
2018-04-23T20:20:34.979Z,19.80
2018-04-23T20:23:02.495Z,19.80
2018-04-23T20:25:29.975Z,19.80
2018-04-23T20:27:57.471Z,19.70
2018-04-23T20:30:25.017Z,19.60
2018-04-23T20:32:52.516Z,19.60
2018-04-23T20:35:19.998Z,19.60
2018-04-23T20:37:47.496Z,19.50
2018-04-23T20:40:14.961Z,19.50
2018-04-23T20:42:43.255Z,19.40
2018-04-23T20:45:10.731Z,19.40
2018-04-23T20:47:38.225Z,19.40
2018-04-23T20:50:05.687Z,19.40
2018-04-23T20:52:33.186Z,19.40
2018-04-23T20:55:00.666Z,19.40
2018-04-23T20:57:28.156Z,19.40
2018-04-23T20:59:56.494Z,19.30
2018-04-23T21:02:23.950Z,19.30
2018-04-23T21:04:51.407Z,19.30
2018-04-23T21:07:18.919Z,19.20
2018-04-23T21:09:46.400Z,19.20
2018-04-23T21:12:13.901Z,19.20
2018-04-23T21:14:41.384Z,19.20
2018-04-23T21:17:08.850Z,19.20
2018-04-23T21:19:37.111Z,19.20
2018-04-23T21:22:04.681Z,19.20
2018-04-23T21:24:32.174Z,19.20
2018-04-23T21:26:59.646Z,19.20
2018-04-23T21:29:27.119Z,19.10
2018-04-23T21:31:54.714Z,19.10
2018-04-23T21:34:22.952Z,19.00
2018-04-23T21:36:50.436Z,18.90
2018-04-23T21:39:17.923Z,18.90
2018-04-23T21:41:45.783Z,18.90
2018-04-23T21:44:14.002Z,18.90
2018-04-23T21:46:41.499Z,18.80
2018-04-23T21:49:09.723Z,18.80
2018-04-23T21:51:37.211Z,18.80
2018-04-23T21:54:04.702Z,18.80
2018-04-23T21:56:32.968Z,18.80
2018-04-23T21:59:01.241Z,18.70
2018-04-23T22:01:29.487Z,18.70
2018-04-23T22:03:56.933Z,18.70
2018-04-23T22:06:24.377Z,18.60
2018-04-23T22:08:51.854Z,18.60
2018-04-23T22:11:19.319Z,18.60
2018-04-23T22:13:46.802Z,18.60
2018-04-23T22:16:15.020Z,18.60
2018-04-23T22:18:42.504Z,18.50
2018-04-23T22:21:10.048Z,18.60
2018-04-23T22:23:37.522Z,18.50
2018-04-23T22:26:04.977Z,18.50
2018-04-23T22:28:32.462Z,18.50
2018-04-23T22:30:59.941Z,18.40
2018-04-23T22:33:27.394Z,18.40
2018-04-23T22:35:54.849Z,18.30
2018-04-23T22:38:22.313Z,18.20
2018-04-23T22:40:49.813Z,18.20
2018-04-23T22:43:17.242Z,18.20
2018-04-23T22:45:44.725Z,18.10
2018-04-23T22:48:12.176Z,18.10
2018-04-23T22:50:39.666Z,18.00
2018-04-23T22:53:07.878Z,17.90
2018-04-23T22:55:35.343Z,17.90
2018-04-23T22:58:02.813Z,17.90
2018-04-23T23:00:30.303Z,17.80
2018-04-23T23:02:57.764Z,17.90
2018-04-23T23:05:25.997Z,17.80
2018-04-23T23:07:53.454Z,17.80
2018-04-23T23:10:20.929Z,17.80
2018-04-23T23:12:48.485Z,17.80
2018-04-23T23:15:15.969Z,17.80
2018-04-23T23:17:44.188Z,17.80
2018-04-23T23:20:11.698Z,17.80
2018-04-23T23:22:39.901Z,17.70
2018-04-23T23:25:07.351Z,17.70
2018-04-23T23:27:34.824Z,17.70
2018-04-23T23:30:02.298Z,17.70
2018-04-23T23:32:29.767Z,17.70
2018-04-23T23:34:57.218Z,17.70
2018-04-23T23:37:24.687Z,17.70
2018-04-23T23:39:52.128Z,17.70
2018-04-23T23:42:19.591Z,17.70
2018-04-23T23:44:47.040Z,17.70
2018-04-23T23:47:14.528Z,17.60
2018-04-23T23:49:42.751Z,17.60
2018-04-23T23:52:10.214Z,17.60
2018-04-23T23:54:37.702Z,17.60
2018-04-23T23:57:06.644Z,17.60
2018-04-23T23:59:34.201Z,17.50
